sensor_id;sensor_type;location;lat;lon;timestamp;pressure;altitude;pressure_sealevel;temperature;humidity
78411;BME280;67706;51.074;-1.796;2023-05-10T00:01:46;100727.63;;;10.98;90.07
78411;BME280;67706;51.074;-1.796;2023-05-10T00:04:12;100727.81;;;10.90;90.51
78411;BME280;67706;51.074;-1.796;2023-05-10T00:06:39;100722.53;;;10.89;90.33
78411;BME280;67706;51.074;-1.796;2023-05-10T00:09:06;100721.03;;;10.86;90.20
78411;BME280;67706;51.074;-1.796;2023-05-10T00:11:32;100730.50;;;10.84;90.24
78411;BME280;67706;51.074;-1.796;2023-05-10T00:13:59;100725.88;;;10.84;90.59
78411;BME280;67706;51.074;-1.796;2023-05-10T00:16:26;100737.66;;;10.78;90.55
78411;BME280;67706;51.074;-1.796;2023-05-10T00:18:54;100740.25;;;10.86;90.28
78411;BME280;67706;51.074;-1.796;2023-05-10T00:21:21;100734.31;;;10.83;90.40
78411;BME280;67706;51.074;-1.796;2023-05-10T00:23:48;100739.75;;;10.76;90.16
78411;BME280;67706;51.074;-1.796;2023-05-10T00:26:14;100731.91;;;10.73;90.23
78411;BME280;67706;51.074;-1.796;2023-05-10T00:28:41;100729.09;;;10.60;91.05
78411;BME280;67706;51.074;-1.796;2023-05-10T00:31:08;100731.81;;;10.60;90.80
78411;BME280;67706;51.074;-1.796;2023-05-10T00:33:35;100731.19;;;10.58;90.73
78411;BME280;67706;51.074;-1.796;2023-05-10T00:36:03;100730.53;;;10.56;90.42
78411;BME280;67706;51.074;-1.796;2023-05-10T00:38:33;100726.28;;;10.54;90.77
78411;BME280;67706;51.074;-1.796;2023-05-10T00:41:00;100731.34;;;10.50;90.76
78411;BME280;67706;51.074;-1.796;2023-05-10T00:43:27;100727.31;;;10.46;90.59
78411;BME280;67706;51.074;-1.796;2023-05-10T00:45:54;100728.38;;;10.45;90.79
78411;BME280;67706;51.074;-1.796;2023-05-10T00:48:21;100731.50;;;10.42;91.04
78411;BME280;67706;51.074;-1.796;2023-05-10T00:50:48;100728.97;;;10.41;90.82
78411;BME280;67706;51.074;-1.796;2023-05-10T00:53:16;100736.47;;;10.32;91.13
78411;BME280;67706;51.074;-1.796;2023-05-10T00:55:43;100741.75;;;10.33;91.22
78411;BME280;67706;51.074;-1.796;2023-05-10T00:58:10;100744.50;;;10.33;90.96
78411;BME280;67706;51.074;-1.796;2023-05-10T01:00:37;100739.59;;;10.29;91.15
78411;BME280;67706;51.074;-1.796;2023-05-10T01:03:05;100740.66;;;10.28;90.93
78411;BME280;67706;51.074;-1.796;2023-05-10T01:05:32;100729.66;;;10.21;91.26
78411;BME280;67706;51.074;-1.796;2023-05-10T01:07:58;100746.69;;;10.17;91.77
78411;BME280;67706;51.074;-1.796;2023-05-10T01:10:27;100750.72;;;10.21;91.23
78411;BME280;67706;51.074;-1.796;2023-05-10T01:12:53;100750.28;;;10.17;91.35
78411;BME280;67706;51.074;-1.796;2023-05-10T01:15:21;100748.97;;;10.13;91.56
78411;BME280;67706;51.074;-1.796;2023-05-10T01:17:48;100745.72;;;10.10;91.65
78411;BME280;67706;51.074;-1.796;2023-05-10T01:20:15;100742.00;;;10.11;91.94
78411;BME280;67706;51.074;-1.796;2023-05-10T01:22:53;100754.47;;;10.13;91.55
78411;BME280;67706;51.074;-1.796;2023-05-10T01:25:43;100748.81;;;10.00;92.31
78411;BME280;67706;51.074;-1.796;2023-05-10T01:31:18;100755.94;;;9.95;92.75
78411;BME280;67706;51.074;-1.796;2023-05-10T01:33:52;100762.72;;;9.99;92.79
78411;BME280;67706;51.074;-1.796;2023-05-10T01:36:25;100761.81;;;9.92;92.90
78411;BME280;67706;51.074;-1.796;2023-05-10T01:38:59;100760.63;;;10.01;92.60
78411;BME280;67706;51.074;-1.796;2023-05-10T01:41:30;100762.72;;;9.99;92.62
78411;BME280;67706;51.074;-1.796;2023-05-10T01:44:04;100762.66;;;9.92;92.73
78411;BME280;67706;51.074;-1.796;2023-05-10T01:46:36;100756.59;;;9.97;92.41
78411;BME280;67706;51.074;-1.796;2023-05-10T01:49:08;100770.28;;;9.97;92.57
78411;BME280;67706;51.074;-1.796;2023-05-10T01:51:40;100759.25;;;9.90;92.88
78411;BME280;67706;51.074;-1.796;2023-05-10T01:54:09;100765.56;;;9.91;92.80
78411;BME280;67706;51.074;-1.796;2023-05-10T01:56:37;100765.25;;;10.00;92.41
78411;BME280;67706;51.074;-1.796;2023-05-10T01:59:11;100769.50;;;10.03;92.29
78411;BME280;67706;51.074;-1.796;2023-05-10T02:01:40;100773.28;;;10.02;92.42
78411;BME280;67706;51.074;-1.796;2023-05-10T02:04:09;100775.63;;;10.05;93.19
78411;BME280;67706;51.074;-1.796;2023-05-10T02:06:39;100775.31;;;10.14;91.86
78411;BME280;67706;51.074;-1.796;2023-05-10T02:09:07;100773.88;;;10.18;91.70
78411;BME280;67706;51.074;-1.796;2023-05-10T02:11:37;100776.69;;;10.25;91.09
78411;BME280;67706;51.074;-1.796;2023-05-10T02:14:05;100774.59;;;10.27;91.20
78411;BME280;67706;51.074;-1.796;2023-05-10T02:16:35;100769.97;;;10.27;90.90
78411;BME280;67706;51.074;-1.796;2023-05-10T02:19:03;100768.16;;;10.34;90.81
78411;BME280;67706;51.074;-1.796;2023-05-10T02:21:32;100772.91;;;10.26;91.43
78411;BME280;67706;51.074;-1.796;2023-05-10T02:24:01;100771.16;;;10.18;91.44
78411;BME280;67706;51.074;-1.796;2023-05-10T02:26:30;100776.19;;;10.15;91.53
78411;BME280;67706;51.074;-1.796;2023-05-10T02:28:57;100770.25;;;10.11;91.29
78411;BME280;67706;51.074;-1.796;2023-05-10T02:31:25;100777.03;;;10.15;91.06
78411;BME280;67706;51.074;-1.796;2023-05-10T02:33:53;100770.59;;;10.08;91.74
78411;BME280;67706;51.074;-1.796;2023-05-10T02:36:21;100781.28;;;10.03;91.92
78411;BME280;67706;51.074;-1.796;2023-05-10T02:38:51;100780.84;;;10.00;91.89
78411;BME280;67706;51.074;-1.796;2023-05-10T02:41:19;100782.00;;;9.91;92.61
78411;BME280;67706;51.074;-1.796;2023-05-10T02:43:47;100780.31;;;9.90;92.30
78411;BME280;67706;51.074;-1.796;2023-05-10T02:46:16;100780.59;;;9.95;91.82
78411;BME280;67706;51.074;-1.796;2023-05-10T02:48:43;100779.28;;;9.91;92.17
78411;BME280;67706;51.074;-1.796;2023-05-10T02:51:11;100787.13;;;9.94;91.97
78411;BME280;67706;51.074;-1.796;2023-05-10T02:53:40;100784.94;;;9.89;91.96
78411;BME280;67706;51.074;-1.796;2023-05-10T02:56:13;100791.34;;;9.96;91.42
78411;BME280;67706;51.074;-1.796;2023-05-10T02:58:42;100790.22;;;9.91;91.68
78411;BME280;67706;51.074;-1.796;2023-05-10T03:01:09;100800.41;;;9.76;92.27
78411;BME280;67706;51.074;-1.796;2023-05-10T03:03:35;100794.56;;;9.64;93.27
78411;BME280;67706;51.074;-1.796;2023-05-10T03:06:02;100795.22;;;9.66;93.20
78411;BME280;67706;51.074;-1.796;2023-05-10T03:08:29;100801.56;;;9.67;93.38
78411;BME280;67706;51.074;-1.796;2023-05-10T03:11:09;100799.81;;;9.59;93.16
78411;BME280;67706;51.074;-1.796;2023-05-10T03:13:46;100799.16;;;9.57;93.21
78411;BME280;67706;51.074;-1.796;2023-05-10T03:16:16;100798.50;;;9.76;92.33
78411;BME280;67706;51.074;-1.796;2023-05-10T03:18:55;100802.09;;;9.77;92.33
78411;BME280;67706;51.074;-1.796;2023-05-10T03:21:26;100792.41;;;9.59;92.85
78411;BME280;67706;51.074;-1.796;2023-05-10T03:24:04;100801.88;;;9.57;93.29
78411;BME280;67706;51.074;-1.796;2023-05-10T03:26:32;100797.72;;;9.61;93.00
78411;BME280;67706;51.074;-1.796;2023-05-10T03:29:02;100793.47;;;9.58;93.30
78411;BME280;67706;51.074;-1.796;2023-05-10T03:31:30;100802.44;;;9.52;93.55
78411;BME280;67706;51.074;-1.796;2023-05-10T03:33:57;100798.94;;;9.58;93.43
78411;BME280;67706;51.074;-1.796;2023-05-10T03:36:24;100805.66;;;9.56;93.21
78411;BME280;67706;51.074;-1.796;2023-05-10T03:38:50;100800.16;;;9.56;93.23
78411;BME280;67706;51.074;-1.796;2023-05-10T03:41:17;100802.72;;;9.57;93.00
78411;BME280;67706;51.074;-1.796;2023-05-10T03:43:44;100800.09;;;9.49;93.35
78411;BME280;67706;51.074;-1.796;2023-05-10T03:46:12;100797.34;;;9.49;93.54
78411;BME280;67706;51.074;-1.796;2023-05-10T03:48:38;100799.06;;;9.50;93.30
78411;BME280;67706;51.074;-1.796;2023-05-10T03:51:05;100807.28;;;9.50;93.14
78411;BME280;67706;51.074;-1.796;2023-05-10T03:53:32;100807.28;;;9.50;93.47
78411;BME280;67706;51.074;-1.796;2023-05-10T03:55:59;100808.69;;;9.46;93.49
78411;BME280;67706;51.074;-1.796;2023-05-10T03:58:25;100802.94;;;9.41;93.62
78411;BME280;67706;51.074;-1.796;2023-05-10T04:00:52;100805.38;;;9.36;93.47
78411;BME280;67706;51.074;-1.796;2023-05-10T04:03:20;100812.94;;;9.34;93.86
78411;BME280;67706;51.074;-1.796;2023-05-10T04:05:46;100807.38;;;9.42;93.38
78411;BME280;67706;51.074;-1.796;2023-05-10T04:08:13;100817.69;;;9.40;93.77
78411;BME280;67706;51.074;-1.796;2023-05-10T04:10:41;100814.53;;;9.43;93.58
78411;BME280;67706;51.074;-1.796;2023-05-10T04:13:08;100818.13;;;9.44;93.67
78411;BME280;67706;51.074;-1.796;2023-05-10T04:15:35;100825.22;;;9.38;93.51
78411;BME280;67706;51.074;-1.796;2023-05-10T04:18:02;100823.97;;;9.41;93.80
78411;BME280;67706;51.074;-1.796;2023-05-10T04:20:32;100829.56;;;9.47;93.76
78411;BME280;67706;51.074;-1.796;2023-05-10T04:22:58;100832.66;;;9.59;93.08
78411;BME280;67706;51.074;-1.796;2023-05-10T04:25:25;100827.34;;;9.57;93.25
78411;BME280;67706;51.074;-1.796;2023-05-10T04:27:52;100825.94;;;9.61;92.94
78411;BME280;67706;51.074;-1.796;2023-05-10T04:30:18;100821.59;;;9.67;92.73
78411;BME280;67706;51.074;-1.796;2023-05-10T04:32:45;100821.03;;;9.72;93.32
78411;BME280;67706;51.074;-1.796;2023-05-10T04:35:12;100819.84;;;9.81;93.20
78411;BME280;67706;51.074;-1.796;2023-05-10T04:37:41;100817.31;;;9.79;92.88
78411;BME280;67706;51.074;-1.796;2023-05-10T04:40:09;100820.63;;;9.75;92.80
78411;BME280;67706;51.074;-1.796;2023-05-10T04:42:36;100822.31;;;9.76;92.80
78411;BME280;67706;51.074;-1.796;2023-05-10T04:45:03;100823.75;;;9.72;93.01
78411;BME280;67706;51.074;-1.796;2023-05-10T04:47:30;100818.44;;;9.70;92.99
78411;BME280;67706;51.074;-1.796;2023-05-10T04:49:57;100826.78;;;9.62;93.06
78411;BME280;67706;51.074;-1.796;2023-05-10T04:52:23;100832.66;;;9.59;93.21
78411;BME280;67706;51.074;-1.796;2023-05-10T04:54:52;100833.13;;;9.63;93.81
78411;BME280;67706;51.074;-1.796;2023-05-10T04:57:18;100834.06;;;9.70;93.42
78411;BME280;67706;51.074;-1.796;2023-05-10T04:59:45;100834.72;;;9.72;93.12
78411;BME280;67706;51.074;-1.796;2023-05-10T05:02:11;100833.66;;;9.73;93.20
78411;BME280;67706;51.074;-1.796;2023-05-10T05:04:38;100833.28;;;9.76;93.07
78411;BME280;67706;51.074;-1.796;2023-05-10T05:07:05;100833.84;;;9.71;93.32
78411;BME280;67706;51.074;-1.796;2023-05-10T05:09:31;100844.16;;;9.69;93.34
78411;BME280;67706;51.074;-1.796;2023-05-10T05:11:59;100837.25;;;9.73;93.41
78411;BME280;67706;51.074;-1.796;2023-05-10T05:14:26;100848.41;;;9.72;93.48
78411;BME280;67706;51.074;-1.796;2023-05-10T05:16:53;100848.94;;;9.82;93.36
78411;BME280;67706;51.074;-1.796;2023-05-10T05:19:19;100853.56;;;9.81;93.43
78411;BME280;67706;51.074;-1.796;2023-05-10T05:21:46;100852.91;;;9.79;93.98
78411;BME280;67706;51.074;-1.796;2023-05-10T05:24:13;100862.38;;;9.77;94.07
78411;BME280;67706;51.074;-1.796;2023-05-10T05:26:40;100862.66;;;9.82;93.66
78411;BME280;67706;51.074;-1.796;2023-05-10T05:29:08;100854.44;;;9.82;93.59
78411;BME280;67706;51.074;-1.796;2023-05-10T05:31:34;100862.84;;;9.80;93.38
78411;BME280;67706;51.074;-1.796;2023-05-10T05:34:01;100864.91;;;9.78;93.93
78411;BME280;67706;51.074;-1.796;2023-05-10T05:36:28;100868.78;;;9.84;94.04
78411;BME280;67706;51.074;-1.796;2023-05-10T05:38:56;100870.25;;;10.01;93.51
78411;BME280;67706;51.074;-1.796;2023-05-10T05:41:22;100874.88;;;10.00;92.94
78411;BME280;67706;51.074;-1.796;2023-05-10T05:43:49;100873.25;;;10.06;93.09
78411;BME280;67706;51.074;-1.796;2023-05-10T05:46:17;100873.06;;;10.22;91.84
78411;BME280;67706;51.074;-1.796;2023-05-10T05:48:44;100869.25;;;10.23;92.34
78411;BME280;67706;51.074;-1.796;2023-05-10T05:51:11;100875.75;;;10.36;91.27
78411;BME280;67706;51.074;-1.796;2023-05-10T05:53:37;100874.38;;;10.47;90.10
78411;BME280;67706;51.074;-1.796;2023-05-10T05:56:04;100877.16;;;10.54;90.46
78411;BME280;67706;51.074;-1.796;2023-05-10T05:58:31;100882.53;;;10.62;89.95
78411;BME280;67706;51.074;-1.796;2023-05-10T06:00:57;100882.16;;;10.71;89.45
78411;BME280;67706;51.074;-1.796;2023-05-10T06:03:25;100880.53;;;10.77;89.29
78411;BME280;67706;51.074;-1.796;2023-05-10T06:05:52;100884.78;;;10.79;89.14
78411;BME280;67706;51.074;-1.796;2023-05-10T06:08:19;100884.25;;;10.90;88.79
78411;BME280;67706;51.074;-1.796;2023-05-10T06:10:46;100880.50;;;10.98;88.17
78411;BME280;67706;51.074;-1.796;2023-05-10T06:13:12;100875.69;;;11.06;87.55
78411;BME280;67706;51.074;-1.796;2023-05-10T06:15:39;100893.22;;;11.05;87.29
78411;BME280;67706;51.074;-1.796;2023-05-10T06:18:06;100893.28;;;11.12;87.27
78411;BME280;67706;51.074;-1.796;2023-05-10T06:20:34;100894.38;;;11.17;87.09
78411;BME280;67706;51.074;-1.796;2023-05-10T06:23:00;100891.25;;;11.27;86.93
78411;BME280;67706;51.074;-1.796;2023-05-10T06:25:27;100896.34;;;11.30;86.20
78411;BME280;67706;51.074;-1.796;2023-05-10T06:27:54;100892.22;;;11.41;85.53
78411;BME280;67706;51.074;-1.796;2023-05-10T06:30:24;100894.41;;;11.52;84.80
78411;BME280;67706;51.074;-1.796;2023-05-10T06:32:53;100900.31;;;11.55;85.05
78411;BME280;67706;51.074;-1.796;2023-05-10T06:35:20;100895.31;;;11.65;85.16
78411;BME280;67706;51.074;-1.796;2023-05-10T06:37:49;100902.53;;;11.66;83.18
78411;BME280;67706;51.074;-1.796;2023-05-10T06:40:16;100906.97;;;11.67;82.84
78411;BME280;67706;51.074;-1.796;2023-05-10T06:42:43;100906.78;;;11.75;82.93
78411;BME280;67706;51.074;-1.796;2023-05-10T06:45:10;100903.88;;;11.83;82.82
78411;BME280;67706;51.074;-1.796;2023-05-10T06:47:37;100916.38;;;11.92;82.22
78411;BME280;67706;51.074;-1.796;2023-05-10T06:50:04;100900.56;;;12.01;82.54
78411;BME280;67706;51.074;-1.796;2023-05-10T06:52:31;100906.09;;;12.08;82.27
78411;BME280;67706;51.074;-1.796;2023-05-10T06:54:59;100916.25;;;12.07;81.38
78411;BME280;67706;51.074;-1.796;2023-05-10T06:57:26;100917.94;;;12.08;80.41
78411;BME280;67706;51.074;-1.796;2023-05-10T06:59:53;100919.22;;;12.12;80.44
78411;BME280;67706;51.074;-1.796;2023-05-10T07:02:21;100921.22;;;12.31;80.14
78411;BME280;67706;51.074;-1.796;2023-05-10T07:04:48;100932.66;;;12.41;80.04
78411;BME280;67706;51.074;-1.796;2023-05-10T07:07:15;100928.00;;;12.48;79.83
78411;BME280;67706;51.074;-1.796;2023-05-10T07:09:42;100919.72;;;12.35;80.31
78411;BME280;67706;51.074;-1.796;2023-05-10T07:12:09;100933.66;;;12.34;79.73
78411;BME280;67706;51.074;-1.796;2023-05-10T07:14:36;100925.25;;;12.35;79.42
78411;BME280;67706;51.074;-1.796;2023-05-10T07:17:03;100916.16;;;12.41;80.04
78411;BME280;67706;51.074;-1.796;2023-05-10T07:19:29;100927.00;;;12.62;80.08
78411;BME280;67706;51.074;-1.796;2023-05-10T07:21:57;100920.25;;;12.98;79.94
78411;BME280;67706;51.074;-1.796;2023-05-10T07:24:24;100929.81;;;13.15;78.43
78411;BME280;67706;51.074;-1.796;2023-05-10T07:26:51;100919.63;;;13.22;77.39
78411;BME280;67706;51.074;-1.796;2023-05-10T07:29:19;100927.03;;;13.02;76.48
78411;BME280;67706;51.074;-1.796;2023-05-10T07:31:45;100926.38;;;12.93;76.88
78411;BME280;67706;51.074;-1.796;2023-05-10T07:34:12;100928.97;;;13.14;77.15
78411;BME280;67706;51.074;-1.796;2023-05-10T07:36:39;100929.16;;;13.32;76.43
78411;BME280;67706;51.074;-1.796;2023-05-10T07:39:05;100925.13;;;13.35;76.02
78411;BME280;67706;51.074;-1.796;2023-05-10T07:41:32;100926.63;;;13.31;76.53
78411;BME280;67706;51.074;-1.796;2023-05-10T07:43:59;100927.47;;;13.12;76.87
78411;BME280;67706;51.074;-1.796;2023-05-10T07:46:27;100930.22;;;13.12;76.58
78411;BME280;67706;51.074;-1.796;2023-05-10T07:48:54;100929.78;;;13.02;76.60
78411;BME280;67706;51.074;-1.796;2023-05-10T07:51:21;100927.69;;;13.23;77.22
78411;BME280;67706;51.074;-1.796;2023-05-10T07:53:47;100924.50;;;13.13;76.53
78411;BME280;67706;51.074;-1.796;2023-05-10T07:56:24;100932.34;;;13.16;76.47
78411;BME280;67706;51.074;-1.796;2023-05-10T07:58:52;100919.44;;;13.23;76.22
78411;BME280;67706;51.074;-1.796;2023-05-10T08:01:19;100923.44;;;13.40;76.25
78411;BME280;67706;51.074;-1.796;2023-05-10T08:03:48;100916.63;;;13.43;74.58
78411;BME280;67706;51.074;-1.796;2023-05-10T08:06:16;100921.50;;;13.54;74.77
78411;BME280;67706;51.074;-1.796;2023-05-10T08:08:43;100917.25;;;13.58;73.01
78411;BME280;67706;51.074;-1.796;2023-05-10T08:11:14;100924.22;;;13.67;73.42
78411;BME280;67706;51.074;-1.796;2023-05-10T08:13:41;100920.56;;;13.93;73.21
78411;BME280;67706;51.074;-1.796;2023-05-10T08:16:08;100916.69;;;14.07;72.71
78411;BME280;67706;51.074;-1.796;2023-05-10T08:18:34;100916.66;;;14.13;71.89
78411;BME280;67706;51.074;-1.796;2023-05-10T08:21:02;100924.63;;;14.28;70.93
78411;BME280;67706;51.074;-1.796;2023-05-10T08:23:29;100919.03;;;14.48;71.37
78411;BME280;67706;51.074;-1.796;2023-05-10T08:25:56;100918.88;;;14.43;70.14
78411;BME280;67706;51.074;-1.796;2023-05-10T08:28:22;100926.22;;;14.55;70.22
78411;BME280;67706;51.074;-1.796;2023-05-10T08:30:49;100917.66;;;14.63;70.18
78411;BME280;67706;51.074;-1.796;2023-05-10T08:33:17;100930.50;;;14.51;70.37
78411;BME280;67706;51.074;-1.796;2023-05-10T08:35:44;100923.81;;;14.65;71.19
78411;BME280;67706;51.074;-1.796;2023-05-10T08:38:12;100924.84;;;14.71;70.23
78411;BME280;67706;51.074;-1.796;2023-05-10T08:40:42;100924.75;;;14.84;69.68
78411;BME280;67706;51.074;-1.796;2023-05-10T08:43:10;100932.09;;;14.96;69.65
78411;BME280;67706;51.074;-1.796;2023-05-10T08:45:39;100929.09;;;14.98;69.43
78411;BME280;67706;51.074;-1.796;2023-05-10T08:48:07;100930.66;;;14.87;70.31
78411;BME280;67706;51.074;-1.796;2023-05-10T08:50:36;100934.03;;;14.89;69.92
78411;BME280;67706;51.074;-1.796;2023-05-10T08:53:05;100942.31;;;14.58;70.80
78411;BME280;67706;51.074;-1.796;2023-05-10T08:55:33;100934.59;;;14.73;72.45
78411;BME280;67706;51.074;-1.796;2023-05-10T08:58:02;100937.16;;;14.68;70.35
78411;BME280;67706;51.074;-1.796;2023-05-10T09:00:28;100932.53;;;14.62;70.96
78411;BME280;67706;51.074;-1.796;2023-05-10T09:02:56;100935.84;;;14.40;69.42
78411;BME280;67706;51.074;-1.796;2023-05-10T09:05:24;100939.28;;;14.28;70.26
78411;BME280;67706;51.074;-1.796;2023-05-10T09:07:50;100938.63;;;14.26;69.98
78411;BME280;67706;51.074;-1.796;2023-05-10T09:10:17;100937.38;;;14.29;70.02
78411;BME280;67706;51.074;-1.796;2023-05-10T09:12:46;100936.69;;;14.47;70.05
78411;BME280;67706;51.074;-1.796;2023-05-10T09:15:15;100926.78;;;14.26;70.10
78411;BME280;67706;51.074;-1.796;2023-05-10T09:17:42;100926.34;;;14.22;70.83
78411;BME280;67706;51.074;-1.796;2023-05-10T09:20:10;100935.13;;;14.57;71.42
78411;BME280;67706;51.074;-1.796;2023-05-10T09:22:37;100940.91;;;14.49;70.06
78411;BME280;67706;51.074;-1.796;2023-05-10T09:25:07;100942.59;;;14.50;69.71
78411;BME280;67706;51.074;-1.796;2023-05-10T09:27:35;100934.28;;;14.57;69.10
78411;BME280;67706;51.074;-1.796;2023-05-10T09:30:04;100935.69;;;14.35;69.85
78411;BME280;67706;51.074;-1.796;2023-05-10T09:32:39;100937.66;;;14.59;70.14
78411;BME280;67706;51.074;-1.796;2023-05-10T09:35:10;100937.66;;;14.90;69.60
78411;BME280;67706;51.074;-1.796;2023-05-10T09:37:39;100926.78;;;14.95;68.57
78411;BME280;67706;51.074;-1.796;2023-05-10T09:40:08;100931.84;;;14.98;68.33
78411;BME280;67706;51.074;-1.796;2023-05-10T09:42:38;100931.41;;;15.01;67.80
78411;BME280;67706;51.074;-1.796;2023-05-10T09:45:07;100932.38;;;15.13;67.62
78411;BME280;67706;51.074;-1.796;2023-05-10T09:47:34;100932.56;;;15.18;66.56
78411;BME280;67706;51.074;-1.796;2023-05-10T09:50:01;100926.19;;;15.18;66.91
78411;BME280;67706;51.074;-1.796;2023-05-10T09:52:30;100932.03;;;15.52;67.27
78411;BME280;67706;51.074;-1.796;2023-05-10T09:54:57;100930.25;;;15.64;66.13
78411;BME280;67706;51.074;-1.796;2023-05-10T09:57:24;100933.00;;;15.82;66.43
78411;BME280;67706;51.074;-1.796;2023-05-10T09:59:52;100931.84;;;15.72;65.65
78411;BME280;67706;51.074;-1.796;2023-05-10T10:02:21;100919.78;;;15.66;65.79
78411;BME280;67706;51.074;-1.796;2023-05-10T10:04:55;100931.53;;;15.80;65.85
78411;BME280;67706;51.074;-1.796;2023-05-10T10:07:22;100933.06;;;15.58;64.12
78411;BME280;67706;51.074;-1.796;2023-05-10T10:09:51;100927.47;;;15.64;64.34
78411;BME280;67706;51.074;-1.796;2023-05-10T10:12:18;100933.63;;;15.84;64.00
78411;BME280;67706;51.074;-1.796;2023-05-10T10:14:46;100932.09;;;15.88;62.48
78411;BME280;67706;51.074;-1.796;2023-05-10T10:17:13;100923.16;;;15.68;62.13
78411;BME280;67706;51.074;-1.796;2023-05-10T10:19:41;100931.47;;;15.68;63.14
78411;BME280;67706;51.074;-1.796;2023-05-10T10:22:08;100931.78;;;15.97;61.77
78411;BME280;67706;51.074;-1.796;2023-05-10T10:24:37;100935.25;;;16.10;60.76
78411;BME280;67706;51.074;-1.796;2023-05-10T10:27:11;100935.78;;;16.19;61.19
78411;BME280;67706;51.074;-1.796;2023-05-10T10:29:47;100932.78;;;16.20;61.36
78411;BME280;67706;51.074;-1.796;2023-05-10T10:32:22;100926.66;;;16.30;60.71
78411;BME280;67706;51.074;-1.796;2023-05-10T10:34:54;100935.63;;;16.14;61.24
78411;BME280;67706;51.074;-1.796;2023-05-10T10:37:21;100929.16;;;16.02;61.46
78411;BME280;67706;51.074;-1.796;2023-05-10T10:39:48;100929.63;;;15.99;61.69
78411;BME280;67706;51.074;-1.796;2023-05-10T10:42:45;100930.16;;;15.89;61.95
78411;BME280;67706;51.074;-1.796;2023-05-10T10:45:12;100924.53;;;15.59;63.74
78411;BME280;67706;51.074;-1.796;2023-05-10T10:47:39;100923.25;;;15.62;62.85
78411;BME280;67706;51.074;-1.796;2023-05-10T10:50:09;100917.22;;;15.65;61.93
78411;BME280;67706;51.074;-1.796;2023-05-10T10:52:39;100919.25;;;15.76;58.11
78411;BME280;67706;51.074;-1.796;2023-05-10T10:55:07;100923.94;;;15.75;58.56
78411;BME280;67706;51.074;-1.796;2023-05-10T10:57:49;100924.72;;;15.64;59.94
78411;BME280;67706;51.074;-1.796;2023-05-10T11:00:23;100921.53;;;15.61;60.78
78411;BME280;67706;51.074;-1.796;2023-05-10T11:02:51;100924.84;;;15.69;61.26
78411;BME280;67706;51.074;-1.796;2023-05-10T11:05:41;100915.19;;;15.78;60.66
78411;BME280;67706;51.074;-1.796;2023-05-10T11:08:26;100916.72;;;15.74;61.85
78411;BME280;67706;51.074;-1.796;2023-05-10T11:11:03;100911.78;;;15.95;60.72
78411;BME280;67706;51.074;-1.796;2023-05-10T11:13:33;100918.41;;;15.94;61.01
78411;BME280;67706;51.074;-1.796;2023-05-10T11:16:13;100914.72;;;16.00;60.36
78411;BME280;67706;51.074;-1.796;2023-05-10T11:18:41;100916.72;;;16.11;59.86
78411;BME280;67706;51.074;-1.796;2023-05-10T11:21:19;100906.41;;;16.18;57.95
78411;BME280;67706;51.074;-1.796;2023-05-10T11:23:50;100905.31;;;16.19;57.56
78411;BME280;67706;51.074;-1.796;2023-05-10T11:26:17;100906.00;;;16.50;57.30
78411;BME280;67706;51.074;-1.796;2023-05-10T11:28:46;100902.19;;;16.45;56.55
78411;BME280;67706;51.074;-1.796;2023-05-10T11:31:14;100892.06;;;16.68;56.38
78411;BME280;67706;51.074;-1.796;2023-05-10T11:33:45;100899.44;;;16.86;57.01
78411;BME280;67706;51.074;-1.796;2023-05-10T11:36:14;100894.91;;;16.92;56.53
78411;BME280;67706;51.074;-1.796;2023-05-10T11:38:42;100900.34;;;17.10;55.60
78411;BME280;67706;51.074;-1.796;2023-05-10T11:41:09;100898.78;;;17.02;56.03
78411;BME280;67706;51.074;-1.796;2023-05-10T11:43:38;100902.88;;;17.11;54.55
78411;BME280;67706;51.074;-1.796;2023-05-10T11:46:05;100901.56;;;17.14;54.86
78411;BME280;67706;51.074;-1.796;2023-05-10T11:48:33;100899.97;;;16.95;56.11
78411;BME280;67706;51.074;-1.796;2023-05-10T11:51:00;100894.69;;;17.16;56.88
78411;BME280;67706;51.074;-1.796;2023-05-10T11:53:29;100901.69;;;17.30;54.88
78411;BME280;67706;51.074;-1.796;2023-05-10T11:56:02;100895.06;;;17.43;54.27
78411;BME280;67706;51.074;-1.796;2023-05-10T11:58:30;100901.25;;;17.57;54.31
78411;BME280;67706;51.074;-1.796;2023-05-10T12:00:57;100895.22;;;17.60;54.99
78411;BME280;67706;51.074;-1.796;2023-05-10T12:03:24;100901.50;;;17.55;55.07
78411;BME280;67706;51.074;-1.796;2023-05-10T12:05:51;100896.63;;;17.16;55.56
78411;BME280;67706;51.074;-1.796;2023-05-10T12:08:20;100912.47;;;16.86;56.47
78411;BME280;67706;51.074;-1.796;2023-05-10T12:10:47;100914.16;;;16.75;57.38
78411;BME280;67706;51.074;-1.796;2023-05-10T12:13:15;100914.03;;;16.34;57.61
78411;BME280;67706;51.074;-1.796;2023-05-10T12:15:43;100913.22;;;16.15;59.25
78411;BME280;67706;51.074;-1.796;2023-05-10T12:18:10;100920.56;;;16.10;60.16
78411;BME280;67706;51.074;-1.796;2023-05-10T12:20:37;100915.63;;;16.12;60.55
78411;BME280;67706;51.074;-1.796;2023-05-10T12:23:04;100910.94;;;16.60;59.16
78411;BME280;67706;51.074;-1.796;2023-05-10T12:25:32;100915.22;;;16.74;58.19
78411;BME280;67706;51.074;-1.796;2023-05-10T12:28:00;100911.03;;;16.95;57.57
78411;BME280;67706;51.074;-1.796;2023-05-10T12:30:32;100907.19;;;16.96;57.56
78411;BME280;67706;51.074;-1.796;2023-05-10T12:33:00;100904.44;;;16.96;57.83
78411;BME280;67706;51.074;-1.796;2023-05-10T12:35:30;100901.81;;;17.01;57.80
78411;BME280;67706;51.074;-1.796;2023-05-10T12:37:57;100910.66;;;16.80;57.19
78411;BME280;67706;51.074;-1.796;2023-05-10T12:40:24;100911.19;;;16.58;58.09
78411;BME280;67706;51.074;-1.796;2023-05-10T12:42:50;100904.28;;;16.79;57.75
78411;BME280;67706;51.074;-1.796;2023-05-10T12:45:18;100907.09;;;17.02;54.25
78411;BME280;67706;51.074;-1.796;2023-05-10T12:47:46;100910.22;;;16.94;54.79
78411;BME280;67706;51.074;-1.796;2023-05-10T12:50:13;100910.97;;;17.13;55.62
78411;BME280;67706;51.074;-1.796;2023-05-10T12:52:39;100912.31;;;17.33;55.44